Time;durP1;ratioP1;P1;durP2;ratioP2;P2;SDS_P1;SDS_P2;PMS_P1;PMS_P2;Temp;Humidity;BMP_temperature;BMP_pressure;BME280_temperature;BME280_humidity;BME280_pressure;Samples;Min_cycle;Max_cycle;Signal;HPM_P1;HPM_P2
2019/05/25 00:02:56;;;;;;;3.42;2.61;;;;;;;20.21;48.56;100320.16;;;;-57
2019/05/25 00:05:56;;;;;;;2.69;2.49;;;;;;;20.20;48.55;100317.80;;;;-56
2019/05/25 00:08:56;;;;;;;2.63;2.39;;;;;;;20.20;48.54;100316.69;;;;-56
2019/05/25 00:11:56;;;;;;;2.86;2.52;;;;;;;20.19;48.58;100313.23;;;;-56
2019/05/25 00:14:56;;;;;;;2.69;2.49;;;;;;;20.19;48.55;100313.47;;;;-57
2019/05/25 00:17:56;;;;;;;2.82;2.50;;;;;;;20.18;48.56;100314.09;;;;-56
2019/05/25 00:20:56;;;;;;;2.93;2.55;;;;;;;20.18;48.55;100311.92;;;;-56
2019/05/25 00:23:56;;;;;;;2.93;2.51;;;;;;;20.18;48.55;100305.98;;;;-56
2019/05/25 00:26:56;;;;;;;2.91;2.50;;;;;;;20.17;48.52;100306.11;;;;-55
2019/05/25 00:29:56;;;;;;;2.60;2.39;;;;;;;20.17;48.54;100310.81;;;;-56
2019/05/25 00:32:56;;;;;;;2.64;2.44;;;;;;;20.16;48.58;100313.95;;;;-56
2019/05/25 00:35:56;;;;;;;2.61;2.41;;;;;;;20.16;48.59;100313.34;;;;-56
2019/05/25 00:38:57;;;;;;;2.71;2.47;;;;;;;20.15;48.54;100314.66;;;;-57
2019/05/25 00:41:56;;;;;;;2.80;2.56;;;;;;;20.15;48.54;100318.50;;;;-55
2019/05/25 00:44:56;;;;;;;2.60;2.40;;;;;;;20.15;48.53;100318.78;;;;-56
2019/05/25 00:47:56;;;;;;;2.71;2.51;;;;;;;20.15;48.53;100312.97;;;;-56
2019/05/25 00:50:56;;;;;;;2.61;2.38;;;;;;;20.13;48.57;100317.19;;;;-56
2019/05/25 00:53:56;;;;;;;2.56;2.36;;;;;;;20.13;48.59;100316.08;;;;-55
2019/05/25 00:56:56;;;;;;;2.81;2.46;;;;;;;20.13;48.58;100314.17;;;;-57
2019/05/25 00:59:56;;;;;;;2.63;2.40;;;;;;;20.13;48.54;100312.73;;;;-57
2019/05/25 01:02:56;;;;;;;2.60;2.40;;;;;;;20.11;48.60;100316.94;;;;-56
2019/05/25 01:05:56;;;;;;;2.63;2.43;;;;;;;20.11;48.58;100311.41;;;;-56
2019/05/25 01:08:56;;;;;;;2.79;2.59;;;;;;;20.11;48.58;100309.56;;;;-57
2019/05/25 01:11:56;;;;;;;2.71;2.51;;;;;;;20.10;48.58;100305.06;;;;-57
2019/05/25 01:14:56;;;;;;;2.66;2.46;;;;;;;20.10;48.56;100308.25;;;;-56
2019/05/25 01:17:56;;;;;;;2.78;2.58;;;;;;;20.09;48.61;100307.03;;;;-55
2019/05/25 01:20:56;;;;;;;3.47;2.59;;;;;;;20.10;48.60;100311.77;;;;-57
2019/05/25 01:23:56;;;;;;;2.81;2.53;;;;;;;20.09;48.65;100314.25;;;;-56
2019/05/25 01:26:56;;;;;;;3.03;2.62;;;;;;;20.08;48.56;100311.19;;;;-57
2019/05/25 01:29:56;;;;;;;3.00;2.60;;;;;;;20.08;48.54;100313.64;;;;-57
2019/05/25 01:32:56;;;;;;;2.60;2.40;;;;;;;20.07;48.55;100314.27;;;;-55
2019/05/25 01:35:56;;;;;;;2.73;2.47;;;;;;;20.08;48.55;100312.80;;;;-56
2019/05/25 01:38:56;;;;;;;2.70;2.50;;;;;;;20.07;48.60;100316.89;;;;-56
2019/05/25 01:41:56;;;;;;;2.72;2.52;;;;;;;20.06;48.55;100315.06;;;;-57
2019/05/25 01:44:56;;;;;;;2.65;2.41;;;;;;;20.06;48.58;100311.65;;;;-55
2019/05/25 01:47:56;;;;;;;2.67;2.47;;;;;;;20.05;48.56;100320.73;;;;-56
2019/05/25 01:50:56;;;;;;;2.74;2.54;;;;;;;20.06;48.54;100326.53;;;;-56
2019/05/25 01:53:56;;;;;;;3.17;2.57;;;;;;;20.05;48.54;100330.05;;;;-56
2019/05/25 01:56:56;;;;;;;2.79;2.59;;;;;;;20.04;48.54;100332.36;;;;-56
2019/05/25 01:59:56;;;;;;;2.69;2.46;;;;;;;20.05;48.56;100332.02;;;;-56
2019/05/25 02:02:56;;;;;;;2.69;2.49;;;;;;;20.04;48.58;100329.67;;;;-56
2019/05/25 02:05:56;;;;;;;2.78;2.56;;;;;;;20.03;48.57;100328.53;;;;-55
2019/05/25 02:08:56;;;;;;;2.94;2.73;;;;;;;20.04;48.61;100333.09;;;;-56
2019/05/25 02:11:56;;;;;;;2.79;2.59;;;;;;;20.03;48.60;100329.47;;;;-56
2019/05/25 02:14:56;;;;;;;2.85;2.55;;;;;;;20.03;48.57;100329.93;;;;-57
2019/05/25 02:17:56;;;;;;;2.75;2.55;;;;;;;20.03;48.57;100333.05;;;;-55
2019/05/25 02:20:56;;;;;;;2.87;2.67;;;;;;;20.02;48.58;100331.10;;;;-57
2019/05/25 02:23:56;;;;;;;2.79;2.59;;;;;;;20.02;48.57;100329.05;;;;-56
2019/05/25 02:26:56;;;;;;;3.28;2.71;;;;;;;20.01;48.57;100325.77;;;;-55
2019/05/25 02:29:56;;;;;;;2.69;2.49;;;;;;;20.01;48.54;100327.38;;;;-56
2019/05/25 02:32:56;;;;;;;2.88;2.50;;;;;;;20.01;48.58;100326.43;;;;-56
2019/05/25 02:35:56;;;;;;;2.70;2.50;;;;;;;20.01;48.59;100327.38;;;;-56
2019/05/25 02:38:56;;;;;;;2.71;2.51;;;;;;;20.00;48.58;100320.42;;;;-55
2019/05/25 02:41:56;;;;;;;2.87;2.67;;;;;;;20.00;48.57;100321.53;;;;-55
2019/05/25 02:44:56;;;;;;;2.69;2.49;;;;;;;19.99;48.58;100325.28;;;;-56
2019/05/25 02:47:56;;;;;;;2.79;2.59;;;;;;;19.98;48.58;100325.67;;;;-55
2019/05/25 02:50:56;;;;;;;2.79;2.59;;;;;;;19.98;48.61;100324.41;;;;-57
2019/05/25 02:53:56;;;;;;;2.59;2.39;;;;;;;19.98;48.61;100327.52;;;;-56
2019/05/25 02:56:56;;;;;;;2.68;2.48;;;;;;;19.98;48.58;100330.80;;;;-57
2019/05/25 02:59:56;;;;;;;2.90;2.69;;;;;;;19.98;48.57;100326.95;;;;-56
2019/05/25 03:02:56;;;;;;;2.87;2.67;;;;;;;19.98;48.62;100329.19;;;;-56
2019/05/25 03:05:56;;;;;;;3.46;2.73;;;;;;;19.98;48.57;100335.33;;;;-55
2019/05/25 03:08:56;;;;;;;2.92;2.72;;;;;;;19.97;48.61;100333.78;;;;-55
2019/05/25 03:11:56;;;;;;;2.79;2.59;;;;;;;19.97;48.60;100337.73;;;;-55
2019/05/25 03:14:56;;;;;;;2.70;2.50;;;;;;;19.96;48.61;100339.14;;;;-55
2019/05/25 03:17:56;;;;;;;3.51;2.61;;;;;;;19.96;48.61;100338.77;;;;-56
2019/05/25 03:20:56;;;;;;;2.87;2.67;;;;;;;19.95;48.64;100343.19;;;;-55
2019/05/25 03:23:56;;;;;;;2.93;2.71;;;;;;;19.95;48.60;100346.10;;;;-57
2019/05/25 03:26:56;;;;;;;2.75;2.55;;;;;;;19.95;48.60;100346.50;;;;-57
2019/05/25 03:29:56;;;;;;;3.02;2.80;;;;;;;19.94;48.61;100349.63;;;;-56
2019/05/25 03:32:56;;;;;;;2.89;2.69;;;;;;;19.94;48.63;100351.77;;;;-56
2019/05/25 03:35:56;;;;;;;2.90;2.70;;;;;;;19.94;48.64;100353.00;;;;-56
2019/05/25 03:38:56;;;;;;;2.79;2.58;;;;;;;19.94;48.59;100352.09;;;;-56
2019/05/25 03:41:56;;;;;;;2.81;2.53;;;;;;;19.95;48.56;100356.06;;;;-56
2019/05/25 03:44:56;;;;;;;2.69;2.49;;;;;;;19.95;48.56;100357.09;;;;-56
2019/05/25 03:47:56;;;;;;;2.80;2.59;;;;;;;19.96;48.52;100358.28;;;;-56
2019/05/25 03:50:56;;;;;;;2.84;2.64;;;;;;;19.96;48.51;100357.98;;;;-56
2019/05/25 03:53:56;;;;;;;2.72;2.52;;;;;;;19.97;48.50;100356.17;;;;-56
2019/05/25 03:56:56;;;;;;;2.77;2.57;;;;;;;19.99;48.44;100356.96;;;;-56
2019/05/25 03:59:56;;;;;;;2.67;2.47;;;;;;;20.01;48.45;100359.45;;;;-56
2019/05/25 04:02:56;;;;;;;2.70;2.50;;;;;;;20.04;48.45;100361.42;;;;-56
2019/05/25 04:05:56;;;;;;;2.85;2.55;;;;;;;20.06;48.37;100358.16;;;;-57
2019/05/25 04:08:56;;;;;;;2.71;2.51;;;;;;;20.09;48.38;100359.11;;;;-56
2019/05/25 04:11:56;;;;;;;2.73;2.53;;;;;;;20.11;48.51;100365.13;;;;-56
2019/05/25 04:14:58;;;;;;;2.55;2.35;;;;;;;20.13;48.55;100366.15;;;;-57
2019/05/25 04:17:56;;;;;;;2.69;2.49;;;;;;;20.17;48.50;100366.88;;;;-56
2019/05/25 04:20:56;;;;;;;2.49;2.29;;;;;;;20.19;48.61;100368.91;;;;-57
2019/05/25 04:23:56;;;;;;;2.50;2.30;;;;;;;20.22;48.66;100368.25;;;;-57
2019/05/25 04:26:56;;;;;;;2.70;2.50;;;;;;;20.24;48.68;100371.18;;;;-57
2019/05/25 04:29:56;;;;;;;2.59;2.39;;;;;;;20.25;48.58;100372.83;;;;-56
2019/05/25 04:32:56;;;;;;;2.91;2.68;;;;;;;20.27;48.61;100371.06;;;;-57
2019/05/25 04:35:56;;;;;;;2.60;2.40;;;;;;;20.31;48.59;100377.97;;;;-56
2019/05/25 04:38:56;;;;;;;2.63;2.43;;;;;;;20.32;48.61;100382.57;;;;-57
2019/05/25 04:41:56;;;;;;;2.75;2.55;;;;;;;20.32;48.62;100382.47;;;;-57
2019/05/25 04:44:56;;;;;;;2.77;2.57;;;;;;;20.33;48.62;100385.80;;;;-56
2019/05/25 04:47:56;;;;;;;2.80;2.53;;;;;;;20.34;48.57;100392.21;;;;-54
2019/05/25 04:50:56;;;;;;;2.87;2.67;;;;;;;20.35;48.54;100389.40;;;;-54
2019/05/25 04:53:56;;;;;;;2.70;2.50;;;;;;;20.36;48.51;100391.35;;;;-54
2019/05/25 04:56:56;;;;;;;2.73;2.41;;;;;;;20.37;48.58;100392.33;;;;-54
2019/05/25 04:59:56;;;;;;;2.63;2.43;;;;;;;20.38;48.49;100392.53;;;;-54
2019/05/25 05:02:56;;;;;;;2.50;2.30;;;;;;;20.39;48.48;100391.41;;;;-54
2019/05/25 05:05:56;;;;;;;2.41;2.21;;;;;;;20.38;48.46;100388.84;;;;-54
2019/05/25 05:08:56;;;;;;;2.67;2.47;;;;;;;20.39;48.44;100392.30;;;;-54
2019/05/25 05:11:56;;;;;;;2.53;2.33;;;;;;;20.40;48.43;100397.38;;;;-56
2019/05/25 05:14:56;;;;;;;2.70;2.50;;;;;;;20.40;48.42;100400.67;;;;-57
2019/05/25 05:17:56;;;;;;;2.51;2.31;;;;;;;20.40;48.44;100395.20;;;;-56
2019/05/25 05:20:56;;;;;;;2.60;2.40;;;;;;;20.40;48.38;100392.78;;;;-57
2019/05/25 05:23:56;;;;;;;2.86;2.65;;;;;;;20.40;48.39;100391.01;;;;-56
2019/05/25 05:26:56;;;;;;;2.63;2.43;;;;;;;20.40;48.39;100388.39;;;;-57
2019/05/25 05:29:56;;;;;;;2.86;2.64;;;;;;;20.41;48.36;100392.12;;;;-56
2019/05/25 05:32:56;;;;;;;2.60;2.40;;;;;;;20.40;48.36;100390.83;;;;-56
2019/05/25 05:35:56;;;;;;;2.59;2.39;;;;;;;20.40;48.34;100391.95;;;;-56
2019/05/25 05:38:56;;;;;;;2.57;2.37;;;;;;;20.39;48.36;100391.74;;;;-56
2019/05/25 05:41:56;;;;;;;2.69;2.49;;;;;;;20.39;48.29;100398.18;;;;-54
2019/05/25 05:44:56;;;;;;;2.37;2.19;;;;;;;20.40;48.33;100400.23;;;;-54
2019/05/25 05:47:56;;;;;;;2.60;2.40;;;;;;;20.40;48.30;100403.25;;;;-54
2019/05/25 05:50:56;;;;;;;2.69;2.49;;;;;;;20.39;48.29;100402.37;;;;-54
2019/05/25 05:53:56;;;;;;;2.49;2.29;;;;;;;20.39;48.26;100404.72;;;;-54
2019/05/25 05:56:56;;;;;;;2.63;2.43;;;;;;;20.39;48.29;100410.42;;;;-52
2019/05/25 05:59:56;;;;;;;2.54;2.34;;;;;;;20.39;48.26;100413.44;;;;-54
2019/05/25 06:02:56;;;;;;;2.91;2.52;;;;;;;20.38;48.26;100416.19;;;;-54
2019/05/25 06:05:56;;;;;;;2.63;2.43;;;;;;;20.38;48.23;100417.09;;;;-54
2019/05/25 06:08:56;;;;;;;2.74;2.54;;;;;;;20.38;48.22;100421.55;;;;-54
2019/05/25 06:11:56;;;;;;;2.64;2.44;;;;;;;20.37;48.18;100421.52;;;;-54
2019/05/25 06:14:56;;;;;;;2.60;2.40;;;;;;;20.36;48.19;100424.66;;;;-54
2019/05/25 06:17:56;;;;;;;2.66;2.46;;;;;;;20.36;48.23;100427.52;;;;-56
2019/05/25 06:20:56;;;;;;;2.49;2.29;;;;;;;20.36;48.20;100427.08;;;;-57
2019/05/25 06:23:56;;;;;;;2.47;2.27;;;;;;;20.35;48.13;100433.02;;;;-63
2019/05/25 06:26:56;;;;;;;2.75;2.55;;;;;;;20.35;48.12;100437.36;;;;-63
2019/05/25 06:29:56;;;;;;;2.27;2.17;;;;;;;20.34;48.14;100435.72;;;;-64
2019/05/25 06:32:56;;;;;;;2.47;2.27;;;;;;;20.35;48.10;100439.95;;;;-52
2019/05/25 06:35:56;;;;;;;2.60;2.40;;;;;;;20.34;48.12;100442.19;;;;-52
2019/05/25 06:38:56;;;;;;;2.50;2.30;;;;;;;20.33;48.10;100441.98;;;;-52
2019/05/25 06:41:56;;;;;;;2.38;2.18;;;;;;;20.34;48.12;100442.76;;;;-54
2019/05/25 06:44:56;;;;;;;2.62;2.42;;;;;;;20.34;48.08;100443.70;;;;-56
2019/05/25 06:47:56;;;;;;;2.53;2.33;;;;;;;20.33;48.13;100443.49;;;;-52
2019/05/25 06:50:56;;;;;;;2.70;2.38;;;;;;;20.33;48.06;100445.73;;;;-56
2019/05/25 06:53:56;;;;;;;2.50;2.30;;;;;;;20.33;48.09;100446.84;;;;-63
2019/05/25 06:56:56;;;;;;;2.64;2.44;;;;;;;20.33;48.10;100450.03;;;;-63
2019/05/25 06:59:56;;;;;;;2.50;2.30;;;;;;;20.33;48.10;100451.44;;;;-63
2019/05/25 07:02:56;;;;;;;2.60;2.40;;;;;;;20.34;48.10;100449.30;;;;-65
2019/05/25 07:05:56;;;;;;;2.40;2.20;;;;;;;20.33;48.13;100456.81;;;;-63
2019/05/25 07:08:56;;;;;;;2.40;2.20;;;;;;;20.33;48.06;100457.31;;;;-63
2019/05/25 07:11:56;;;;;;;2.60;2.40;;;;;;;20.33;48.15;100460.50;;;;-63
2019/05/25 07:14:56;;;;;;;2.54;2.34;;;;;;;20.33;48.08;100459.66;;;;-54
2019/05/25 07:17:56;;;;;;;2.35;2.20;;;;;;;20.33;48.09;100460.16;;;;-54
2019/05/25 07:20:56;;;;;;;2.56;2.36;;;;;;;20.33;48.10;100464.36;;;;-54
2019/05/25 07:23:56;;;;;;;2.59;2.39;;;;;;;20.33;48.06;100461.50;;;;-54
2019/05/25 07:26:56;;;;;;;2.58;2.34;;;;;;;20.33;48.10;100464.80;;;;-54
2019/05/25 07:29:56;;;;;;;2.59;2.39;;;;;;;20.34;48.10;100466.58;;;;-54
2019/05/25 07:32:56;;;;;;;2.59;2.39;;;;;;;20.34;48.12;100467.02;;;;-54
2019/05/25 07:35:56;;;;;;;2.55;2.35;;;;;;;20.34;48.08;100469.87;;;;-54
2019/05/25 07:38:56;;;;;;;2.30;2.13;;;;;;;20.34;48.07;100469.70;;;;-55
2019/05/25 07:41:56;;;;;;;2.34;2.14;;;;;;;20.34;48.10;100473.05;;;;-54
2019/05/25 07:44:56;;;;;;;2.33;2.23;;;;;;;20.34;48.05;100472.89;;;;-54
2019/05/25 07:47:56;;;;;;;2.53;2.29;;;;;;;20.34;48.07;100476.91;;;;-54
2019/05/25 07:50:56;;;;;;;2.45;2.25;;;;;;;20.34;48.05;100477.31;;;;-54
2019/05/25 07:53:56;;;;;;;2.62;2.42;;;;;;;20.34;48.09;100475.91;;;;-54
2019/05/25 07:56:56;;;;;;;2.73;2.51;;;;;;;20.35;48.07;100474.27;;;;-54
2019/05/25 07:59:56;;;;;;;2.72;2.52;;;;;;;20.35;48.03;100478.86;;;;-54
2019/05/25 08:02:56;;;;;;;2.59;2.39;;;;;;;20.35;48.13;100477.13;;;;-54
2019/05/25 08:05:56;;;;;;;2.68;2.48;;;;;;;20.35;48.07;100474.77;;;;-54
2019/05/25 08:08:56;;;;;;;2.49;2.29;;;;;;;20.35;48.05;100480.55;;;;-54
2019/05/25 08:11:56;;;;;;;2.54;2.34;;;;;;;20.34;48.03;100483.79;;;;-54
2019/05/25 08:14:56;;;;;;;2.83;2.39;;;;;;;20.35;48.26;100481.48;;;;-51
2019/05/25 08:17:56;;;;;;;2.97;2.65;;;;;;;20.36;48.64;100479.41;;;;-51
2019/05/25 08:20:56;;;;;;;4.47;2.80;;;;;;;20.40;48.67;100483.94;;;;-50
2019/05/25 08:23:56;;;;;;;7.81;3.00;;;;;;;20.43;48.92;100481.14;;;;-53
2019/05/25 08:26:56;;;;;;;7.73;2.73;;;;;;;20.45;48.84;100481.19;;;;-54
2019/05/25 08:29:56;;;;;;;13.15;2.81;;;;;;;20.45;48.83;100481.22;;;;-56
2019/05/25 08:32:56;;;;;;;4.08;2.69;;;;;;;20.47;48.75;100487.47;;;;-50
2019/05/25 08:35:56;;;;;;;5.61;2.63;;;;;;;20.49;49.16;100485.64;;;;-52
2019/05/25 08:38:56;;;;;;;7.01;2.49;;;;;;;20.50;49.11;100488.37;;;;-59
2019/05/25 08:41:56;;;;;;;7.24;2.50;;;;;;;20.53;49.17;100482.25;;;;-52
2019/05/25 08:44:56;;;;;;;5.95;2.80;;;;;;;20.52;48.75;100479.73;;;;-51
2019/05/25 08:47:56;;;;;;;3.84;2.54;;;;;;;20.52;48.74;100483.05;;;;-52
2019/05/25 08:50:56;;;;;;;4.24;2.47;;;;;;;20.52;48.76;100479.19;;;;-51
2019/05/25 08:53:56;;;;;;;5.63;2.63;;;;;;;20.50;48.79;100478.81;;;;-52
2019/05/25 08:56:56;;;;;;;4.29;2.66;;;;;;;20.50;48.71;100482.27;;;;-52
2019/05/25 08:59:56;;;;;;;3.98;2.63;;;;;;;20.50;48.71;100484.98;;;;-50
2019/05/25 09:02:56;;;;;;;4.66;2.65;;;;;;;20.49;48.65;100481.85;;;;-50
2019/05/25 09:05:56;;;;;;;3.21;2.60;;;;;;;20.48;48.64;100482.19;;;;-51
2019/05/25 09:08:56;;;;;;;3.71;2.49;;;;;;;20.49;48.58;100487.89;;;;-50
2019/05/25 09:11:56;;;;;;;3.97;2.46;;;;;;;20.48;48.56;100488.63;;;;-51
2019/05/25 09:14:56;;;;;;;3.57;2.52;;;;;;;20.48;48.51;100490.94;;;;-51
2019/05/25 09:17:56;;;;;;;4.62;2.60;;;;;;;20.47;48.47;100488.52;;;;-51
2019/05/25 09:20:56;;;;;;;3.75;2.31;;;;;;;20.47;48.42;100486.73;;;;-52
2019/05/25 09:23:56;;;;;;;3.11;2.53;;;;;;;20.46;48.44;100487.53;;;;-60
2019/05/25 09:26:56;;;;;;;2.65;2.45;;;;;;;20.46;48.46;100482.57;;;;-50
2019/05/25 09:29:56;;;;;;;3.15;2.46;;;;;;;20.46;48.46;100480.15;;;;-54
2019/05/25 09:32:56;;;;;;;3.94;2.41;;;;;;;20.45;48.41;100475.41;;;;-59
2019/05/25 09:35:56;;;;;;;2.67;2.37;;;;;;;20.44;48.37;100479.17;;;;-54
2019/05/25 09:38:56;;;;;;;4.18;2.40;;;;;;;20.45;48.39;100481.52;;;;-60
2019/05/25 09:41:56;;;;;;;3.35;2.42;;;;;;;20.43;48.37;100485.97;;;;-54
2019/05/25 09:44:56;;;;;;;2.49;2.29;;;;;;;20.43;48.38;100486.98;;;;-51
2019/05/25 09:47:56;;;;;;;3.51;2.52;;;;;;;20.42;48.35;100481.50;;;;-59
2019/05/25 09:50:56;;;;;;;2.65;2.43;;;;;;;20.43;48.38;100484.05;;;;-51
2019/05/25 09:53:56;;;;;;;2.96;2.35;;;;;;;20.42;48.29;100490.16;;;;-54
2019/05/25 09:56:56;;;;;;;3.21;2.43;;;;;;;20.42;48.25;100488.04;;;;-54
2019/05/25 09:59:56;;;;;;;3.49;2.51;;;;;;;20.41;48.46;100492.19;;;;-57
2019/05/25 10:02:56;;;;;;;6.14;2.73;;;;;;;20.42;48.80;100492.57;;;;-54
2019/05/25 10:05:56;;;;;;;3.93;2.46;;;;;;;20.42;48.88;100492.34;;;;-51
2019/05/25 10:08:56;;;;;;;2.83;2.54;;;;;;;20.44;48.89;100491.48;;;;-53
2019/05/25 10:11:56;;;;;;;5.73;2.98;;;;;;;20.46;48.78;100486.26;;;;-53
2019/05/25 10:14:56;;;;;;;4.00;2.37;;;;;;;20.45;48.67;100481.73;;;;-60
2019/05/25 10:17:56;;;;;;;4.17;2.53;;;;;;;20.45;48.65;100478.09;;;;-60
2019/05/25 10:20:56;;;;;;;2.73;2.46;;;;;;;20.46;48.63;100477.63;;;;-54
2019/05/25 10:23:56;;;;;;;2.52;2.32;;;;;;;20.45;48.59;100473.56;;;;-54
2019/05/25 10:26:56;;;;;;;3.42;2.52;;;;;;;20.44;48.53;100471.02;;;;-54
2019/05/25 10:29:56;;;;;;;2.73;2.53;;;;;;;20.43;48.57;100466.45;;;;-60
2019/05/25 10:32:56;;;;;;;2.90;2.46;;;;;;;20.43;48.55;100469.12;;;;-60
2019/05/25 10:35:56;;;;;;;2.56;2.36;;;;;;;20.42;48.52;100462.81;;;;-50
2019/05/25 10:38:56;;;;;;;4.18;2.52;;;;;;;20.42;48.50;100460.02;;;;-52
2019/05/25 10:41:56;;;;;;;2.61;2.37;;;;;;;20.42;48.50;100458.25;;;;-52
2019/05/25 10:44:56;;;;;;;2.87;2.43;;;;;;;20.41;48.39;100453.38;;;;-50
2019/05/25 10:47:56;;;;;;;4.08;2.39;;;;;;;20.42;48.42;100460.26;;;;-59
2019/05/25 10:50:56;;;;;;;2.81;2.51;;;;;;;20.41;48.42;100459.08;;;;-50
2019/05/25 10:53:56;;;;;;;2.48;2.28;;;;;;;20.40;48.38;100453.41;;;;-54
2019/05/25 10:56:56;;;;;;;2.57;2.34;;;;;;;20.39;48.38;100452.30;;;;-54
2019/05/25 10:59:56;;;;;;;2.60;2.40;;;;;;;20.39;48.38;100454.64;;;;-54
2019/05/25 11:02:56;;;;;;;3.70;2.64;;;;;;;20.39;48.37;100453.36;;;;-60
2019/05/25 11:05:56;;;;;;;3.35;2.39;;;;;;;20.39;48.33;100446.16;;;;-60
2019/05/25 11:08:56;;;;;;;2.54;2.34;;;;;;;20.38;48.34;100447.11;;;;-50
2019/05/25 11:11:56;;;;;;;3.21;2.41;;;;;;;20.37;48.41;100445.50;;;;-54
2019/05/25 11:14:56;;;;;;;3.10;2.60;;;;;;;20.36;48.34;100448.38;;;;-52
2019/05/25 11:17:56;;;;;;;3.91;2.55;;;;;;;20.35;48.36;100437.94;;;;-52
2019/05/25 11:20:56;;;;;;;2.73;2.52;;;;;;;20.36;48.31;100436.47;;;;-52
2019/05/25 11:23:56;;;;;;;3.59;2.55;;;;;;;20.36;48.29;100431.20;;;;-52
2019/05/25 11:26:56;;;;;;;3.65;2.33;;;;;;;20.35;48.34;100424.02;;;;-52
2019/05/25 11:29:56;;;;;;;2.68;2.48;;;;;;;20.36;48.32;100418.69;;;;-50
2019/05/25 11:32:56;;;;;;;3.13;2.55;;;;;;;20.35;48.34;100420.49;;;;-50
2019/05/25 11:35:56;;;;;;;2.84;2.53;;;;;;;20.34;48.30;100421.06;;;;-50
2019/05/25 11:38:56;;;;;;;2.72;2.50;;;;;;;20.34;48.31;100415.09;;;;-51
2019/05/25 11:41:56;;;;;;;2.73;2.49;;;;;;;20.34;48.29;100424.08;;;;-50
2019/05/25 11:44:56;;;;;;;2.63;2.42;;;;;;;20.34;48.29;100408.55;;;;-51
2019/05/25 11:47:56;;;;;;;2.77;2.42;;;;;;;20.34;48.30;100412.17;;;;-51
2019/05/25 11:50:56;;;;;;;2.55;2.35;;;;;;;20.34;48.27;100423.31;;;;-60
2019/05/25 11:53:56;;;;;;;2.50;2.30;;;;;;;20.33;48.29;100421.25;;;;-61
2019/05/25 11:56:56;;;;;;;2.69;2.47;;;;;;;20.33;48.26;100421.69;;;;-60
2019/05/25 11:59:56;;;;;;;3.67;2.62;;;;;;;20.33;48.26;100418.62;;;;-59
2019/05/25 12:02:56;;;;;;;5.59;2.56;;;;;;;20.35;48.49;100418.98;;;;-53
2019/05/25 12:05:56;;;;;;;4.02;2.67;;;;;;;20.36;48.69;100424.16;;;;-52
2019/05/25 12:08:56;;;;;;;4.11;2.50;;;;;;;20.39;48.68;100424.84;;;;-63
2019/05/25 12:11:56;;;;;;;3.73;2.54;;;;;;;20.39;48.59;100421.09;;;;-56
2019/05/25 12:14:56;;;;;;;3.01;2.45;;;;;;;20.40;48.70;100417.52;;;;-51
2019/05/25 12:17:56;;;;;;;2.75;2.55;;;;;;;20.43;48.70;100414.61;;;;-60
2019/05/25 12:20:56;;;;;;;3.29;2.60;;;;;;;20.42;48.70;100410.55;;;;-59
2019/05/25 12:23:56;;;;;;;2.59;2.39;;;;;;;20.43;48.83;100408.17;;;;-51
2019/05/25 12:26:56;;;;;;;2.78;2.58;;;;;;;20.45;48.81;100406.80;;;;-60
2019/05/25 12:29:56;;;;;;;2.93;2.41;;;;;;;20.47;48.71;100401.75;;;;-53
2019/05/25 12:32:56;;;;;;;3.49;2.36;;;;;;;20.47;48.80;100402.09;;;;-57
2019/05/25 12:35:56;;;;;;;3.23;2.48;;;;;;;20.47;48.82;100394.74;;;;-57
2019/05/25 12:38:56;;;;;;;2.78;2.55;;;;;;;20.49;48.78;100402.16;;;;-64
2019/05/25 12:41:56;;;;;;;2.73;2.51;;;;;;;20.49;48.78;100406.29;;;;-54
2019/05/25 12:44:56;;;;;;;3.33;2.51;;;;;;;20.50;48.86;100411.33;;;;-57
2019/05/25 12:47:56;;;;;;;3.46;2.51;;;;;;;20.50;48.78;100410.96;;;;-55
2019/05/25 12:50:56;;;;;;;4.04;2.44;;;;;;;20.51;48.84;100410.73;;;;-55
2019/05/25 12:53:56;;;;;;;4.08;2.52;;;;;;;20.53;48.82;100412.89;;;;-52
2019/05/25 12:56:56;;;;;;;3.27;2.45;;;;;;;20.53;48.87;100407.45;;;;-53
2019/05/25 12:59:56;;;;;;;4.23;2.43;;;;;;;20.53;48.86;100409.03;;;;-50
2019/05/25 13:02:56;;;;;;;3.17;2.35;;;;;;;20.54;48.78;100410.41;;;;-49
2019/05/25 13:05:56;;;;;;;4.30;2.55;;;;;;;20.54;48.84;100409.27;;;;-62
2019/05/25 13:08:56;;;;;;;2.55;2.35;;;;;;;20.55;48.86;100411.13;;;;-63
2019/05/25 13:11:56;;;;;;;2.97;2.50;;;;;;;20.55;48.82;100406.27;;;;-61
2019/05/25 13:14:56;;;;;;;3.21;2.31;;;;;;;20.56;48.79;100399.75;;;;-52
2019/05/25 13:17:55;;;;;;;3.07;2.51;;;;;;;20.57;48.76;100404.22;;;;-61
2019/05/25 13:20:56;;;;;;;2.65;2.45;;;;;;;20.58;48.75;100404.59;;;;-56
2019/05/25 13:23:56;;;;;;;5.20;2.39;;;;;;;20.59;48.80;100403.39;;;;-49
2019/05/25 13:26:56;;;;;;;16.55;2.97;;;;;;;20.60;48.94;100402.93;;;;-51
2019/05/25 13:29:56;;;;;;;8.35;2.76;;;;;;;20.65;48.85;100399.67;;;;-64
2019/05/25 13:32:56;;;;;;;6.50;2.54;;;;;;;20.64;48.95;100398.55;;;;-54
2019/05/25 13:35:56;;;;;;;7.05;2.53;;;;;;;20.64;48.92;100391.01;;;;-55
2019/05/25 13:38:55;;;;;;;7.34;2.67;;;;;;;20.65;48.84;100385.41;;;;-59
2019/05/25 13:41:56;;;;;;;4.26;2.51;;;;;;;20.64;48.90;100380.09;;;;-63
2019/05/25 13:44:56;;;;;;;8.37;2.50;;;;;;;20.63;48.88;100380.56;;;;-60
2019/05/25 13:47:56;;;;;;;7.70;2.64;;;;;;;20.65;48.83;100377.78;;;;-52
2019/05/25 13:50:56;;;;;;;11.35;3.23;;;;;;;20.66;48.86;100378.73;;;;-60
2019/05/25 13:53:56;;;;;;;7.29;2.98;;;;;;;20.68;48.76;100380.82;;;;-53
2019/05/25 13:56:56;;;;;;;8.27;2.94;;;;;;;20.67;48.85;100377.36;;;;-55
2019/05/25 13:59:56;;;;;;;9.43;2.74;;;;;;;20.66;48.91;100378.73;;;;-57
2019/05/25 14:02:56;;;;;;;11.65;3.17;;;;;;;20.66;48.96;100376.38;;;;-57
2019/05/25 14:05:56;;;;;;;6.83;2.63;;;;;;;20.65;48.90;100373.77;;;;-61
2019/05/25 14:08:56;;;;;;;5.73;2.75;;;;;;;20.64;48.94;100376.07;;;;-57
2019/05/25 14:11:56;;;;;;;7.31;2.64;;;;;;;20.64;48.91;100375.56;;;;-55
2019/05/25 14:14:56;;;;;;;4.09;2.50;;;;;;;20.65;48.85;100377.62;;;;-56
2019/05/25 14:17:56;;;;;;;8.09;2.62;;;;;;;20.65;48.88;100379.20;;;;-57
2019/05/25 14:20:55;;;;;;;8.20;2.81;;;;;;;20.64;48.90;100379.49;;;;-60
2019/05/25 14:23:56;;;;;;;5.10;2.41;;;;;;;20.63;48.92;100377.55;;;;-59
2019/05/25 14:26:56;;;;;;;5.96;2.50;;;;;;;20.65;48.75;100377.52;;;;-58
2019/05/25 14:29:56;;;;;;;7.95;2.71;;;;;;;20.62;48.86;100378.52;;;;-61
2019/05/25 14:32:56;;;;;;;11.74;2.73;;;;;;;20.66;48.95;100370.01;;;;-51
2019/05/25 14:35:56;;;;;;;7.22;2.42;;;;;;;20.64;48.77;100365.00;;;;-51
2019/05/25 14:38:56;;;;;;;8.18;2.73;;;;;;;20.63;48.83;100365.02;;;;-57
2019/05/25 14:41:56;;;;;;;5.03;2.54;;;;;;;20.61;48.81;100363.81;;;;-57
2019/05/25 14:44:56;;;;;;;3.56;2.40;;;;;;;20.60;48.81;100364.61;;;;-50
2019/05/25 14:47:56;;;;;;;5.57;2.79;;;;;;;20.58;48.72;100357.39;;;;-51
2019/05/25 14:50:56;;;;;;;5.31;2.54;;;;;;;20.57;48.78;100356.00;;;;-51
2019/05/25 14:53:56;;;;;;;3.77;2.35;;;;;;;20.57;48.73;100357.28;;;;-50
2019/05/25 14:56:56;;;;;;;3.67;2.53;;;;;;;20.57;48.75;100358.92;;;;-50
2019/05/25 14:59:55;;;;;;;4.65;2.47;;;;;;;20.56;48.68;100352.04;;;;-50
2019/05/25 15:02:55;;;;;;;4.05;2.39;;;;;;;20.55;48.69;100357.60;;;;-57
2019/05/25 15:05:56;;;;;;;5.46;2.51;;;;;;;20.54;48.59;100354.41;;;;-57
2019/05/25 15:08:56;;;;;;;3.35;2.40;;;;;;;20.54;48.60;100364.72;;;;-50
2019/05/25 15:11:56;;;;;;;3.99;2.32;;;;;;;20.53;48.58;100366.19;;;;-50
2019/05/25 15:14:56;;;;;;;3.95;2.37;;;;;;;20.53;48.51;100370.34;;;;-51
2019/05/25 15:17:56;;;;;;;7.68;2.32;;;;;;;20.51;48.58;100372.41;;;;-53
2019/05/25 15:20:56;;;;;;;3.93;2.45;;;;;;;20.50;48.52;100372.88;;;;-52
2019/05/25 15:23:56;;;;;;;2.85;2.19;;;;;;;20.50;48.46;100371.03;;;;-51
2019/05/25 15:26:56;;;;;;;3.98;2.22;;;;;;;20.50;48.48;100371.67;;;;-52
2019/05/25 15:29:56;;;;;;;4.61;2.27;;;;;;;20.50;48.45;100371.06;;;;-52
2019/05/25 15:32:56;;;;;;;3.99;2.20;;;;;;;20.48;48.42;100374.81;;;;-53
2019/05/25 15:35:56;;;;;;;3.77;2.14;;;;;;;20.48;48.43;100376.83;;;;-52
2019/05/25 15:38:55;;;;;;;6.99;2.59;;;;;;;20.51;48.32;100376.91;;;;-62
2019/05/25 15:41:56;;;;;;;3.71;2.31;;;;;;;20.52;48.46;100382.88;;;;-62
2019/05/25 15:44:56;;;;;;;5.56;2.27;;;;;;;20.53;48.40;100384.88;;;;-52
2019/05/25 15:47:56;;;;;;;4.49;2.21;;;;;;;20.54;48.44;100391.45;;;;-51
2019/05/25 15:50:56;;;;;;;3.41;2.31;;;;;;;20.55;48.44;100392.33;;;;-52
2019/05/25 15:53:55;;;;;;;2.82;2.17;;;;;;;20.56;48.53;100394.82;;;;-60
2019/05/25 15:56:55;;;;;;;3.04;2.04;;;;;;;20.56;48.46;100392.14;;;;-57
2019/05/25 15:59:56;;;;;;;2.71;2.20;;;;;;;20.58;48.46;100391.78;;;;-51
2019/05/25 16:02:56;;;;;;;3.14;2.10;;;;;;;20.59;48.57;100395.11;;;;-52
2019/05/25 16:05:56;;;;;;;2.79;2.11;;;;;;;20.59;48.55;100395.84;;;;-51
2019/05/25 16:08:56;;;;;;;2.31;2.00;;;;;;;20.60;48.61;100399.17;;;;-50
2019/05/25 16:11:56;;;;;;;3.55;2.33;;;;;;;20.61;48.54;100400.34;;;;-52
2019/05/25 16:14:56;;;;;;;3.33;2.03;;;;;;;20.62;48.63;100402.50;;;;-53
2019/05/25 16:17:56;;;;;;;3.55;2.18;;;;;;;20.62;48.60;100403.85;;;;-51
2019/05/25 16:20:55;;;;;;;5.03;2.32;;;;;;;20.65;48.69;100407.22;;;;-49
2019/05/25 16:23:55;;;;;;;2.87;2.27;;;;;;;20.66;48.59;100405.68;;;;-64
2019/05/25 16:26:56;;;;;;;4.33;2.37;;;;;;;20.66;48.66;100403.67;;;;-64
2019/05/25 16:29:56;;;;;;;12.49;2.29;;;;;;;20.68;48.57;100411.30;;;;-55
2019/05/25 16:32:56;;;;;;;2.45;1.89;;;;;;;20.69;48.68;100415.59;;;;-52
2019/05/25 16:35:55;;;;;;;4.00;2.08;;;;;;;20.68;48.64;100419.69;;;;-51
2019/05/25 16:38:56;;;;;;;4.51;2.09;;;;;;;20.69;48.66;100417.88;;;;-64
2019/05/25 16:41:56;;;;;;;3.59;2.00;;;;;;;20.69;48.68;100417.21;;;;-54